createdAt,value
2018-05-29T00:00:20.967Z,99.90
2018-05-29T00:02:47.983Z,99.90
2018-05-29T00:05:14.994Z,99.90
2018-05-29T00:07:42.056Z,99.90
2018-05-29T00:10:09.090Z,99.90
2018-05-29T00:12:36.220Z,99.90
2018-05-29T00:15:03.216Z,99.90
2018-05-29T00:17:30.249Z,99.90
2018-05-29T00:19:57.254Z,99.90
2018-05-29T00:22:24.278Z,99.90
2018-05-29T00:24:51.292Z,99.90
2018-05-29T00:27:19.080Z,99.90
2018-05-29T00:29:46.870Z,99.90
2018-05-29T00:32:13.886Z,99.90
2018-05-29T00:34:40.948Z,99.90
2018-05-29T00:37:07.967Z,99.90
2018-05-29T00:39:34.990Z,99.90
2018-05-29T00:42:02.760Z,99.90
2018-05-29T00:44:30.540Z,99.90
2018-05-29T00:46:58.312Z,99.90
2018-05-29T00:49:26.110Z,99.90
2018-05-29T00:51:53.125Z,99.90
2018-05-29T00:54:21.645Z,99.90
2018-05-29T00:56:49.439Z,99.90
2018-05-29T00:59:16.451Z,99.90
2018-05-29T01:01:43.457Z,99.90
2018-05-29T01:04:10.510Z,99.90
2018-05-29T01:06:38.285Z,99.90
2018-05-29T01:09:06.072Z,99.90
2018-05-29T01:11:33.088Z,99.90
2018-05-29T01:14:00.143Z,99.90
2018-05-29T01:16:28.674Z,99.90
2018-05-29T01:18:56.463Z,99.90
2018-05-29T01:21:23.521Z,99.90
2018-05-29T01:23:51.280Z,99.90
2018-05-29T01:26:19.056Z,99.90
2018-05-29T01:28:46.851Z,99.90
2018-05-29T01:31:13.878Z,99.90
2018-05-29T01:33:40.943Z,99.90
2018-05-29T01:36:07.956Z,99.90
2018-05-29T01:38:35.058Z,99.90
2018-05-29T01:41:02.100Z,99.90
2018-05-29T01:43:29.126Z,99.90
2018-05-29T01:45:56.122Z,99.90
2018-05-29T01:48:23.136Z,99.90
2018-05-29T01:50:50.139Z,99.90
2018-05-29T01:53:17.168Z,99.90
2018-05-29T01:55:44.259Z,99.90
2018-05-29T01:58:11.268Z,99.90
2018-05-29T02:00:38.277Z,99.90
2018-05-29T02:03:05.298Z,99.90
2018-05-29T02:05:32.307Z,99.90
2018-05-29T02:07:59.330Z,99.90
2018-05-29T02:10:26.356Z,99.90
2018-05-29T02:12:53.374Z,99.90
2018-05-29T02:15:20.387Z,99.90
2018-05-29T02:17:47.394Z,99.90
2018-05-29T02:20:14.422Z,99.90
2018-05-29T02:22:41.427Z,99.90
2018-05-29T02:25:09.214Z,99.90
2018-05-29T02:27:37.004Z,99.90
2018-05-29T02:30:04.000Z,99.90
2018-05-29T02:32:31.027Z,99.90
2018-05-29T02:34:58.032Z,99.90
2018-05-29T02:37:25.054Z,99.90
2018-05-29T02:39:52.058Z,99.90
2018-05-29T02:42:19.085Z,99.90
2018-05-29T02:44:46.110Z,99.90
2018-05-29T02:47:13.963Z,99.90
2018-05-29T02:49:40.969Z,99.90
2018-05-29T02:52:07.986Z,99.90
2018-05-29T02:54:35.040Z,99.90
2018-05-29T02:57:02.045Z,99.90
2018-05-29T02:59:29.048Z,99.90
2018-05-29T03:01:56.085Z,99.90
2018-05-29T03:04:23.107Z,99.90
2018-05-29T03:06:50.108Z,99.90
2018-05-29T03:09:17.115Z,99.90
2018-05-29T03:11:44.135Z,99.90
2018-05-29T03:14:11.160Z,99.90
2018-05-29T03:16:38.187Z,99.90
2018-05-29T03:19:05.944Z,99.90
2018-05-29T03:21:32.956Z,99.90
2018-05-29T03:23:59.974Z,99.90
2018-05-29T03:26:27.794Z,99.90
2018-05-29T03:28:54.783Z,99.90
2018-05-29T03:31:21.800Z,99.90
2018-05-29T03:33:48.803Z,99.90
2018-05-29T03:36:15.838Z,99.90
2018-05-29T03:38:43.034Z,99.90
2018-05-29T03:41:10.084Z,99.90
2018-05-29T03:43:37.088Z,99.90
2018-05-29T03:46:04.110Z,99.90
2018-05-29T03:48:31.141Z,99.90
2018-05-29T03:50:58.158Z,99.90
2018-05-29T03:53:25.946Z,99.90
2018-05-29T03:55:53.114Z,99.90
2018-05-29T03:58:20.119Z,99.90
2018-05-29T04:00:47.137Z,99.90
2018-05-29T04:03:14.158Z,99.90
2018-05-29T04:05:41.202Z,99.90
2018-05-29T04:08:08.209Z,99.90
2018-05-29T04:10:35.231Z,99.90
2018-05-29T04:13:02.251Z,99.90
2018-05-29T04:15:29.340Z,99.90
2018-05-29T04:17:56.410Z,99.90
2018-05-29T04:20:23.458Z,99.90
2018-05-29T04:22:50.619Z,99.90
2018-05-29T04:25:17.619Z,99.90
2018-05-29T04:27:44.663Z,99.90
2018-05-29T04:30:12.451Z,99.90
2018-05-29T04:32:39.594Z,99.90
2018-05-29T04:35:07.370Z,99.90
2018-05-29T04:37:34.401Z,99.90
2018-05-29T04:40:01.409Z,99.90
2018-05-29T04:42:28.426Z,99.90
2018-05-29T04:44:55.457Z,99.90
2018-05-29T04:47:22.529Z,99.90
2018-05-29T04:49:49.630Z,99.90
2018-05-29T04:52:17.439Z,99.90
2018-05-29T04:54:44.671Z,99.90
2018-05-29T04:57:12.454Z,99.90
2018-05-29T04:59:40.217Z,99.90
2018-05-29T05:02:07.235Z,99.90
2018-05-29T05:04:34.237Z,99.90
2018-05-29T05:07:02.035Z,99.90
2018-05-29T05:09:29.054Z,99.90
2018-05-29T05:11:56.096Z,99.90
2018-05-29T05:14:23.092Z,99.90
2018-05-29T05:16:50.883Z,99.90
2018-05-29T05:19:18.672Z,99.90
2018-05-29T05:21:46.448Z,99.90
2018-05-29T05:24:13.451Z,99.90
2018-05-29T05:26:40.457Z,99.90
2018-05-29T05:29:07.475Z,99.90
2018-05-29T05:31:34.484Z,99.90
2018-05-29T05:34:01.497Z,99.90
2018-05-29T05:36:28.518Z,99.90
2018-05-29T05:38:55.530Z,99.90
2018-05-29T05:41:22.544Z,99.90
2018-05-29T05:43:49.558Z,99.90
2018-05-29T05:46:17.337Z,99.90
2018-05-29T05:48:45.104Z,99.90
2018-05-29T05:51:12.899Z,99.90
2018-05-29T05:53:40.686Z,99.90
2018-05-29T05:56:07.706Z,99.90
2018-05-29T05:58:34.760Z,99.90
2018-05-29T06:01:01.758Z,99.90
2018-05-29T06:03:28.774Z,99.90
2018-05-29T06:05:55.807Z,99.90
2018-05-29T06:08:22.820Z,99.90
2018-05-29T06:10:50.640Z,99.90
2018-05-29T06:13:17.645Z,99.90
2018-05-29T06:15:45.449Z,99.90
2018-05-29T06:18:12.459Z,99.90
2018-05-29T06:20:39.475Z,99.90
2018-05-29T06:23:06.499Z,99.90
2018-05-29T06:25:34.271Z,99.90
2018-05-29T06:28:01.288Z,99.90
2018-05-29T06:30:28.319Z,99.90
2018-05-29T06:32:55.323Z,99.90
2018-05-29T06:35:22.329Z,99.90
2018-05-29T06:37:50.104Z,99.90
2018-05-29T06:40:17.907Z,99.90
2018-05-29T06:42:44.918Z,99.90
2018-05-29T06:45:11.993Z,99.90
2018-05-29T06:47:38.962Z,99.90
2018-05-29T06:50:05.964Z,99.90
2018-05-29T06:52:33.043Z,99.90
2018-05-29T06:55:00.019Z,99.90
2018-05-29T06:57:27.794Z,99.90
2018-05-29T06:59:55.589Z,99.90
2018-05-29T07:02:23.391Z,99.90
2018-05-29T07:04:50.421Z,99.90
2018-05-29T07:07:18.201Z,99.90
2018-05-29T07:09:45.975Z,99.90
2018-05-29T07:12:13.767Z,99.90
2018-05-29T07:14:40.781Z,99.90
2018-05-29T07:17:07.807Z,99.90
2018-05-29T07:19:34.852Z,99.90
2018-05-29T07:22:01.866Z,99.90
2018-05-29T07:24:28.863Z,99.90
2018-05-29T07:26:55.892Z,99.90
2018-05-29T07:29:22.901Z,99.90
2018-05-29T07:31:49.914Z,99.90
2018-05-29T07:34:17.718Z,99.90
2018-05-29T07:36:44.759Z,99.90
2018-05-29T07:39:12.537Z,99.90
2018-05-29T07:41:40.319Z,99.90
2018-05-29T07:44:07.339Z,99.90
2018-05-29T07:46:34.361Z,99.90
2018-05-29T07:49:01.386Z,99.90
2018-05-29T07:51:29.179Z,99.90
2018-05-29T07:53:56.179Z,99.90
2018-05-29T07:56:23.210Z,99.90
2018-05-29T07:58:50.220Z,99.90
2018-05-29T08:01:17.228Z,99.90
2018-05-29T08:03:44.260Z,99.90
2018-05-29T08:06:12.031Z,99.90
2018-05-29T08:08:39.818Z,99.90
2018-05-29T08:11:06.826Z,99.90
2018-05-29T08:13:33.870Z,99.90
2018-05-29T08:16:00.872Z,99.90
2018-05-29T08:18:27.880Z,99.90
2018-05-29T08:20:54.888Z,99.90
2018-05-29T08:23:21.907Z,99.90
2018-05-29T08:25:48.938Z,99.90
2018-05-29T08:28:15.965Z,99.90
2018-05-29T08:30:42.997Z,99.90
2018-05-29T08:33:10.004Z,99.90
2018-05-29T08:35:37.790Z,99.90
2018-05-29T08:38:04.823Z,99.90
2018-05-29T08:40:31.820Z,99.90
2018-05-29T08:42:58.845Z,99.90
2018-05-29T08:45:25.875Z,99.90
2018-05-29T08:47:52.885Z,99.90
2018-05-29T08:50:20.670Z,99.90
2018-05-29T08:52:47.698Z,99.90
2018-05-29T08:55:14.720Z,99.90
2018-05-29T08:57:41.741Z,99.90
2018-05-29T09:00:08.753Z,99.90
2018-05-29T09:02:35.791Z,99.90
2018-05-29T09:05:02.813Z,99.90
2018-05-29T09:07:29.822Z,99.90
2018-05-29T09:09:56.841Z,99.90
2018-05-29T09:12:23.897Z,99.90
2018-05-29T09:14:50.920Z,99.90
2018-05-29T09:17:17.938Z,99.90
2018-05-29T09:19:44.941Z,99.90
2018-05-29T09:22:11.948Z,99.90
2018-05-29T09:24:38.968Z,99.90
2018-05-29T09:27:06.758Z,99.90
2018-05-29T09:29:34.723Z,99.90
2018-05-29T09:32:01.732Z,99.90
2018-05-29T09:34:28.732Z,99.90
2018-05-29T09:36:55.760Z,99.90
2018-05-29T09:39:22.781Z,99.90
2018-05-29T09:41:49.803Z,99.90
2018-05-29T09:44:16.814Z,99.90
2018-05-29T09:46:43.842Z,99.90
2018-05-29T09:49:11.629Z,99.90
2018-05-29T09:51:38.649Z,99.90
2018-05-29T09:54:05.663Z,99.90
2018-05-29T09:56:32.685Z,99.90
2018-05-29T09:59:00.451Z,99.90
2018-05-29T10:01:27.491Z,99.90
2018-05-29T10:03:54.487Z,99.90
2018-05-29T10:06:22.264Z,99.90
2018-05-29T10:08:50.050Z,99.90
2018-05-29T10:11:17.093Z,99.90
2018-05-29T10:13:44.874Z,99.90
2018-05-29T10:16:12.647Z,99.90
2018-05-29T10:18:40.435Z,99.90
2018-05-29T10:21:08.207Z,99.90
2018-05-29T10:23:35.998Z,99.90
2018-05-29T10:26:02.995Z,99.90
2018-05-29T10:28:30.023Z,99.90
2018-05-29T10:30:57.107Z,99.90
2018-05-29T10:33:24.839Z,99.90
2018-05-29T10:35:52.641Z,99.90
2018-05-29T10:38:19.635Z,99.90
2018-05-29T10:40:46.645Z,99.90
2018-05-29T10:43:13.672Z,99.90
2018-05-29T10:45:40.696Z,99.90
2018-05-29T10:48:07.697Z,99.90
2018-05-29T10:50:35.482Z,99.90
2018-05-29T10:53:03.263Z,99.90
2018-05-29T10:55:31.028Z,99.90
2018-05-29T10:57:58.817Z,99.60
2018-05-29T11:00:26.602Z,99.90
2018-05-29T11:02:53.619Z,99.90
2018-05-29T11:05:20.643Z,99.70
2018-05-29T11:07:47.647Z,99.90
2018-05-29T11:10:14.675Z,98.60
2018-05-29T11:12:41.703Z,99.20
2018-05-29T11:15:08.713Z,98.70
2018-05-29T11:17:35.741Z,99.10
2018-05-29T11:20:02.803Z,98.30
2018-05-29T11:22:30.533Z,97.00
2018-05-29T11:24:58.321Z,95.70
2018-05-29T11:27:26.105Z,95.80
2018-05-29T11:29:53.131Z,95.80
2018-05-29T11:32:20.144Z,94.20
2018-05-29T11:34:47.177Z,92.50
2018-05-29T11:37:14.193Z,90.90
2018-05-29T11:39:41.464Z,89.20
2018-05-29T11:42:08.461Z,84.70
2018-05-29T11:44:35.476Z,82.10
2018-05-29T11:47:03.248Z,77.50
2018-05-29T11:49:30.270Z,77.50
2018-05-29T11:51:57.287Z,72.80
2018-05-29T11:54:24.381Z,76.10
2018-05-29T11:56:52.153Z,75.00
2018-05-29T11:59:19.156Z,75.00
2018-05-29T12:01:47.000Z,74.10
2018-05-29T12:04:13.976Z,74.20
2018-05-29T12:06:40.978Z,75.70
2018-05-29T12:09:07.988Z,72.80
2018-05-29T12:11:35.016Z,71.30
2018-05-29T12:14:02.807Z,75.10
2018-05-29T12:16:29.808Z,75.00
2018-05-29T12:18:56.835Z,70.60
2018-05-29T12:21:23.867Z,68.60
2018-05-29T12:23:51.641Z,64.80
2018-05-29T12:26:19.441Z,63.50
2018-05-29T12:28:46.443Z,62.50
2018-05-29T12:31:13.452Z,61.20
2018-05-29T12:33:40.477Z,60.90
2018-05-29T12:36:07.480Z,63.30
2018-05-29T12:38:34.508Z,60.30
2018-05-29T12:41:02.299Z,61.20
2018-05-29T12:43:30.072Z,58.70
2018-05-29T12:45:57.843Z,58.10
2018-05-29T12:48:25.632Z,57.10
2018-05-29T12:50:52.641Z,57.00
2018-05-29T12:53:19.647Z,54.10
2018-05-29T12:55:47.436Z,51.40
2018-05-29T12:58:14.430Z,51.40
2018-05-29T13:00:41.447Z,49.20
2018-05-29T13:03:08.466Z,50.60
2018-05-29T13:05:35.485Z,51.40
2018-05-29T13:08:02.518Z,51.10
2018-05-29T13:10:30.284Z,51.30
2018-05-29T13:12:58.080Z,52.80
2018-05-29T13:15:25.075Z,52.70
2018-05-29T13:17:52.102Z,52.40
2018-05-29T13:20:19.115Z,52.20
2018-05-29T13:22:46.116Z,50.70
2018-05-29T13:25:13.143Z,50.50
2018-05-29T13:27:40.205Z,50.90
2018-05-29T13:30:07.196Z,49.70
2018-05-29T13:32:34.207Z,48.70
2018-05-29T13:35:01.231Z,48.30
2018-05-29T13:37:28.259Z,48.20
2018-05-29T13:39:55.269Z,48.60
2018-05-29T13:42:22.293Z,48.10
2018-05-29T13:44:49.287Z,48.60
2018-05-29T13:47:16.303Z,48.80
2018-05-29T13:49:43.298Z,49.10
2018-05-29T13:52:10.321Z,49.40
2018-05-29T13:54:37.351Z,50.00
2018-05-29T13:57:04.348Z,51.60
2018-05-29T13:59:31.373Z,52.00
2018-05-29T14:01:59.162Z,53.90
2018-05-29T14:04:26.951Z,54.60
2018-05-29T14:06:53.963Z,54.50
2018-05-29T14:09:20.983Z,55.20
2018-05-29T14:11:47.988Z,54.80
2018-05-29T14:14:15.009Z,55.50
2018-05-29T14:16:42.008Z,55.70
2018-05-29T14:19:09.028Z,56.70
2018-05-29T14:21:36.059Z,56.40
2018-05-29T14:24:03.060Z,57.10
2018-05-29T14:26:30.098Z,57.80
2018-05-29T14:28:57.118Z,58.30
2018-05-29T14:31:24.899Z,59.20
2018-05-29T14:33:52.698Z,60.10
2018-05-29T14:36:19.714Z,60.10
2018-05-29T14:38:46.742Z,60.80
2018-05-29T14:41:13.766Z,61.20
2018-05-29T14:43:40.774Z,62.20
2018-05-29T14:46:07.768Z,62.70
2018-05-29T14:48:35.551Z,63.90
2018-05-29T14:51:02.590Z,63.90
2018-05-29T14:53:29.605Z,63.60
2018-05-29T14:55:56.624Z,64.20
2018-05-29T14:58:24.514Z,66.00
2018-05-29T15:00:52.302Z,65.80
2018-05-29T15:03:19.304Z,65.80
2018-05-29T15:05:46.322Z,65.70
2018-05-29T15:08:13.334Z,66.10
2018-05-29T15:10:40.344Z,67.40
2018-05-29T15:13:07.363Z,67.50
2018-05-29T15:15:35.151Z,68.30
2018-05-29T15:18:02.914Z,68.80
2018-05-29T15:20:30.687Z,68.40
2018-05-29T15:22:57.701Z,69.00
2018-05-29T15:25:24.730Z,69.50
2018-05-29T15:27:51.742Z,70.50
2018-05-29T15:30:18.755Z,72.10
2018-05-29T15:32:45.751Z,72.20
2018-05-29T15:35:12.783Z,73.10
2018-05-29T15:37:39.784Z,74.30
2018-05-29T15:40:06.830Z,75.40
2018-05-29T15:42:33.844Z,76.20
2018-05-29T15:45:00.870Z,76.90
2018-05-29T15:47:27.890Z,77.70
2018-05-29T15:49:54.909Z,77.90
2018-05-29T15:52:22.698Z,78.60
2018-05-29T15:54:49.711Z,78.60
2018-05-29T15:57:16.747Z,79.10
2018-05-29T15:59:43.766Z,80.30
2018-05-29T16:02:11.553Z,81.60
2018-05-29T16:04:38.585Z,81.60
2018-05-29T16:07:05.591Z,82.50
2018-05-29T16:09:32.612Z,83.30
2018-05-29T16:12:01.206Z,83.40
2018-05-29T16:14:29.018Z,84.50
2018-05-29T16:16:56.040Z,84.40
2018-05-29T16:19:23.812Z,87.50
2018-05-29T16:21:51.592Z,87.00
2018-05-29T16:24:19.359Z,87.20
2018-05-29T16:26:46.934Z,87.20
2018-05-29T16:29:13.947Z,88.60
2018-05-29T16:31:40.994Z,90.00
2018-05-29T16:34:08.014Z,90.40
2018-05-29T16:36:35.035Z,90.90
2018-05-29T16:39:02.070Z,91.60
2018-05-29T16:41:29.092Z,91.80
2018-05-29T16:43:56.111Z,91.80
2018-05-29T16:46:23.675Z,91.90
2018-05-29T16:48:50.679Z,93.20
2018-05-29T16:51:18.896Z,95.80
2018-05-29T16:53:46.199Z,95.80
2018-05-29T16:56:13.222Z,97.70
2018-05-29T16:58:40.270Z,98.60
2018-05-29T17:01:08.084Z,99.90
2018-05-29T17:03:35.084Z,99.90
2018-05-29T17:06:02.094Z,99.90
2018-05-29T17:08:29.105Z,99.90
2018-05-29T17:10:56.111Z,99.90
2018-05-29T17:13:23.155Z,99.90
2018-05-29T17:15:50.157Z,99.90
2018-05-29T17:18:17.159Z,99.90
2018-05-29T17:20:44.944Z,99.90
2018-05-29T17:23:11.977Z,99.90
2018-05-29T17:25:38.993Z,99.90
2018-05-29T17:28:06.039Z,99.90
2018-05-29T17:30:33.051Z,99.90
2018-05-29T17:33:00.073Z,99.90
2018-05-29T17:35:30.127Z,99.90
2018-05-29T17:37:57.163Z,99.90
2018-05-29T17:40:24.192Z,99.90
2018-05-29T17:42:51.230Z,99.90
2018-05-29T17:45:18.992Z,99.90
2018-05-29T17:47:46.039Z,99.90
2018-05-29T17:50:13.061Z,99.90
2018-05-29T17:52:40.098Z,99.90
2018-05-29T17:55:07.915Z,99.90
2018-05-29T17:57:34.930Z,99.90
2018-05-29T18:00:02.718Z,99.90
2018-05-29T18:02:29.747Z,99.90
2018-05-29T18:04:56.783Z,99.90
2018-05-29T18:07:23.796Z,99.90
2018-05-29T18:09:50.827Z,99.90
2018-05-29T18:12:17.832Z,99.90
2018-05-29T18:14:44.863Z,99.90
2018-05-29T18:17:12.666Z,99.90
2018-05-29T18:19:39.700Z,99.90
2018-05-29T18:22:07.504Z,99.90
2018-05-29T18:24:34.520Z,99.90
2018-05-29T18:27:02.308Z,99.90
2018-05-29T18:29:30.110Z,99.90
2018-05-29T18:31:57.399Z,99.90
2018-05-29T18:34:24.396Z,99.90
2018-05-29T18:36:51.424Z,99.90
2018-05-29T18:39:18.433Z,99.90
2018-05-29T18:41:46.249Z,99.90
2018-05-29T18:44:13.264Z,99.90
2018-05-29T18:46:41.033Z,99.90
2018-05-29T18:49:08.900Z,99.90
2018-05-29T18:51:35.855Z,99.90
2018-05-29T18:54:02.882Z,99.90
2018-05-29T18:56:29.926Z,99.90
2018-05-29T18:58:56.942Z,99.90
2018-05-29T19:01:23.955Z,99.90
2018-05-29T19:03:50.972Z,99.90
2018-05-29T19:06:18.757Z,99.90
2018-05-29T19:08:46.526Z,99.90
2018-05-29T19:11:14.318Z,99.90
2018-05-29T19:13:41.337Z,99.90
2018-05-29T19:16:08.347Z,99.90
2018-05-29T19:18:35.395Z,99.90
2018-05-29T19:21:02.430Z,99.90
2018-05-29T19:23:29.427Z,99.90
2018-05-29T19:25:56.445Z,99.90
2018-05-29T19:28:24.249Z,99.90
2018-05-29T19:30:51.275Z,99.90
2018-05-29T19:33:18.276Z,99.90
2018-05-29T19:35:45.304Z,99.90
2018-05-29T19:38:13.111Z,99.90
2018-05-29T19:40:40.129Z,99.90
2018-05-29T19:43:07.140Z,99.90
2018-05-29T19:45:34.207Z,99.90
2018-05-29T19:48:01.216Z,99.90
2018-05-29T19:50:28.474Z,99.90
2018-05-29T19:52:55.492Z,99.90
2018-05-29T19:55:22.501Z,99.90
2018-05-29T19:57:50.312Z,99.90
2018-05-29T20:00:17.314Z,99.90
2018-05-29T20:02:44.330Z,99.90
2018-05-29T20:05:11.351Z,99.90
2018-05-29T20:07:39.123Z,99.90
2018-05-29T20:10:06.142Z,99.90
2018-05-29T20:12:33.174Z,99.90
2018-05-29T20:15:00.199Z,99.90
2018-05-29T20:17:30.441Z,99.90
2018-05-29T20:19:58.242Z,99.90
2018-05-29T20:22:25.219Z,99.90
2018-05-29T20:24:52.724Z,99.90
2018-05-29T20:27:19.740Z,99.90
2018-05-29T20:29:46.769Z,99.90
2018-05-29T20:32:14.539Z,99.90
2018-05-29T20:34:42.318Z,99.90
2018-05-29T20:37:10.114Z,99.90
2018-05-29T20:39:37.138Z,99.90
2018-05-29T20:42:04.161Z,99.90
2018-05-29T20:44:31.184Z,99.90
2018-05-29T20:46:58.966Z,99.90
2018-05-29T20:49:26.173Z,99.90
2018-05-29T20:51:53.194Z,99.90
2018-05-29T20:54:20.207Z,99.90
2018-05-29T20:56:47.238Z,99.90
2018-05-29T20:59:14.274Z,99.90
2018-05-29T21:01:41.283Z,99.90
2018-05-29T21:04:08.296Z,99.90
2018-05-29T21:06:35.304Z,99.90
2018-05-29T21:09:02.321Z,99.90
2018-05-29T21:11:29.351Z,99.90
2018-05-29T21:13:57.119Z,99.90
2018-05-29T21:16:24.936Z,99.90
2018-05-29T21:18:51.943Z,99.90
2018-05-29T21:21:19.020Z,99.90
2018-05-29T21:23:46.816Z,99.90
2018-05-29T21:26:13.837Z,99.90
2018-05-29T21:28:40.865Z,99.90
2018-05-29T21:31:08.640Z,99.90
2018-05-29T21:33:35.682Z,99.90
2018-05-29T21:36:02.699Z,99.90
2018-05-29T21:38:29.707Z,99.90
2018-05-29T21:40:56.734Z,99.90
2018-05-29T21:43:24.659Z,99.90
2018-05-29T21:45:51.676Z,99.90
2018-05-29T21:48:19.450Z,99.90
2018-05-29T21:50:47.224Z,99.90
2018-05-29T21:53:15.021Z,99.90
2018-05-29T21:55:42.027Z,99.90
2018-05-29T21:58:09.045Z,99.90
2018-05-29T22:00:36.086Z,99.90
2018-05-29T22:03:03.871Z,99.90
2018-05-29T22:05:30.881Z,99.90
2018-05-29T22:07:57.924Z,99.90
2018-05-29T22:10:25.049Z,99.90
2018-05-29T22:12:52.830Z,99.90
2018-05-29T22:15:19.853Z,99.90
2018-05-29T22:17:46.883Z,99.90
2018-05-29T22:20:13.898Z,99.90
2018-05-29T22:22:40.927Z,99.90
2018-05-29T22:25:07.935Z,99.90
2018-05-29T22:27:34.948Z,99.90
2018-05-29T22:30:01.967Z,99.90
2018-05-29T22:32:29.001Z,99.90
2018-05-29T22:34:56.003Z,99.90
2018-05-29T22:37:23.020Z,99.90
2018-05-29T22:39:50.041Z,99.90
2018-05-29T22:42:17.056Z,99.90
2018-05-29T22:44:44.063Z,99.90
2018-05-29T22:47:11.063Z,99.90
2018-05-29T22:49:38.089Z,99.90
2018-05-29T22:52:05.856Z,99.90
2018-05-29T22:54:32.860Z,99.90
2018-05-29T22:56:59.923Z,99.90
2018-05-29T22:59:26.937Z,99.90
2018-05-29T23:01:53.958Z,99.90
2018-05-29T23:04:21.153Z,99.90
2018-05-29T23:06:48.160Z,99.90
2018-05-29T23:09:15.168Z,99.90
2018-05-29T23:11:42.188Z,99.90
2018-05-29T23:14:09.209Z,99.90
2018-05-29T23:16:36.987Z,99.90
2018-05-29T23:19:04.778Z,99.90
2018-05-29T23:21:31.796Z,99.90
2018-05-29T23:23:58.819Z,99.90
2018-05-29T23:26:25.828Z,99.90
2018-05-29T23:28:53.614Z,99.90
2018-05-29T23:31:21.405Z,99.90
2018-05-29T23:33:48.407Z,99.90
2018-05-29T23:36:15.417Z,99.90
2018-05-29T23:38:42.428Z,99.90
2018-05-29T23:41:09.441Z,99.90
2018-05-29T23:43:36.445Z,99.90
2018-05-29T23:46:03.448Z,99.90
2018-05-29T23:48:31.235Z,99.90
2018-05-29T23:50:58.236Z,99.90
2018-05-29T23:53:25.284Z,99.90
2018-05-29T23:55:52.296Z,99.90
2018-05-29T23:58:20.072Z,99.90
